sensor_id;sensor_type;location;lat;lon;timestamp;pressure;altitude;pressure_sealevel;temperature;humidity
52249;BME280;38541;48.130;8.378;2022-08-21T00:01:34;93032.50;;;13.50;71.33
52249;BME280;38541;48.130;8.378;2022-08-21T00:04:08;93037.03;;;13.45;71.20
52249;BME280;38541;48.130;8.378;2022-08-21T00:06:36;93031.25;;;13.37;72.17
52249;BME280;38541;48.130;8.378;2022-08-21T00:09:05;93028.06;;;13.35;71.82
52249;BME280;38541;48.130;8.378;2022-08-21T00:11:34;93023.31;;;13.32;71.33
52249;BME280;38541;48.130;8.378;2022-08-21T00:14:02;93021.28;;;13.24;72.05
52249;BME280;38541;48.130;8.378;2022-08-21T00:16:29;93028.13;;;13.25;73.10
52249;BME280;38541;48.130;8.378;2022-08-21T00:18:56;93020.72;;;13.27;73.25
52249;BME280;38541;48.130;8.378;2022-08-21T00:21:23;93028.13;;;13.25;73.83
52249;BME280;38541;48.130;8.378;2022-08-21T00:23:51;93028.91;;;13.25;73.88
52249;BME280;38541;48.130;8.378;2022-08-21T00:26:18;93021.56;;;13.17;73.34
52249;BME280;38541;48.130;8.378;2022-08-21T00:28:45;93017.09;;;13.18;74.41
52249;BME280;38541;48.130;8.378;2022-08-21T00:31:12;93023.66;;;13.20;73.83
52249;BME280;38541;48.130;8.378;2022-08-21T00:33:39;93014.44;;;13.18;72.74
52249;BME280;38541;48.130;8.378;2022-08-21T00:36:05;93025.00;;;13.12;72.37
52249;BME280;38541;48.130;8.378;2022-08-21T00:38:33;93015.53;;;13.06;72.18
52249;BME280;38541;48.130;8.378;2022-08-21T00:41:02;93016.84;;;13.04;72.23
52249;BME280;38541;48.130;8.378;2022-08-21T00:43:49;93014.50;;;12.97;71.68
52249;BME280;38541;48.130;8.378;2022-08-21T00:46:17;93004.78;;;12.92;71.64
52249;BME280;38541;48.130;8.378;2022-08-21T00:48:43;93010.34;;;12.86;71.96
52249;BME280;38541;48.130;8.378;2022-08-21T00:51:14;93002.97;;;12.82;71.91
52249;BME280;38541;48.130;8.378;2022-08-21T00:53:43;93010.09;;;12.82;72.82
52249;BME280;38541;48.130;8.378;2022-08-21T00:56:17;93013.00;;;12.75;73.63
52249;BME280;38541;48.130;8.378;2022-08-21T00:58:45;93001.41;;;12.71;73.93
52249;BME280;38541;48.130;8.378;2022-08-21T01:01:14;92995.63;;;12.69;74.81
52249;BME280;38541;48.130;8.378;2022-08-21T01:03:45;92996.16;;;12.66;75.23
52249;BME280;38541;48.130;8.378;2022-08-21T01:06:13;93001.69;;;12.69;74.65
52249;BME280;38541;48.130;8.378;2022-08-21T01:08:39;92996.16;;;12.66;73.26
52249;BME280;38541;48.130;8.378;2022-08-21T01:11:14;93001.97;;;12.63;72.88
52249;BME280;38541;48.130;8.378;2022-08-21T01:13:42;93003.28;;;12.60;72.79
52249;BME280;38541;48.130;8.378;2022-08-21T01:16:15;92995.41;;;12.55;72.45
52249;BME280;38541;48.130;8.378;2022-08-21T01:18:44;93002.28;;;12.51;72.83
52249;BME280;38541;48.130;8.378;2022-08-21T01:21:23;93004.66;;;12.47;72.96
52249;BME280;38541;48.130;8.378;2022-08-21T01:23:55;92999.38;;;12.47;72.50
52249;BME280;38541;48.130;8.378;2022-08-21T01:26:25;92989.91;;;12.46;72.59
52249;BME280;38541;48.130;8.378;2022-08-21T01:31:52;92990.16;;;12.39;73.56
52249;BME280;38541;48.130;8.378;2022-08-21T01:34:19;92988.84;;;12.37;72.64
52249;BME280;38541;48.130;8.378;2022-08-21T01:36:47;92988.34;;;12.30;71.95
52249;BME280;38541;48.130;8.378;2022-08-21T01:39:14;92983.63;;;12.26;72.40
52249;BME280;38541;48.130;8.378;2022-08-21T01:41:42;92982.03;;;12.25;73.28
52249;BME280;38541;48.130;8.378;2022-08-21T01:44:08;92979.41;;;12.25;73.74
52249;BME280;38541;48.130;8.378;2022-08-21T01:46:35;92975.16;;;12.30;73.81
52249;BME280;38541;48.130;8.378;2022-08-21T01:49:04;92976.75;;;12.25;74.19
52249;BME280;38541;48.130;8.378;2022-08-21T01:51:30;92972.81;;;12.18;75.14
52249;BME280;38541;48.130;8.378;2022-08-21T01:53:57;92976.00;;;12.15;75.34
52249;BME280;38541;48.130;8.378;2022-08-21T01:56:24;92976.78;;;12.10;73.91
52249;BME280;38541;48.130;8.378;2022-08-21T01:58:51;92977.03;;;12.08;73.68
52249;BME280;38541;48.130;8.378;2022-08-21T02:01:17;92978.88;;;12.03;73.38
52249;BME280;38541;48.130;8.378;2022-08-21T02:03:44;92976.78;;;12.05;73.04
52249;BME280;38541;48.130;8.378;2022-08-21T02:06:14;92967.25;;;11.98;72.73
52249;BME280;38541;48.130;8.378;2022-08-21T02:08:44;92973.59;;;11.92;72.59
52249;BME280;38541;48.130;8.378;2022-08-21T02:11:10;92964.91;;;11.87;73.11
52249;BME280;38541;48.130;8.378;2022-08-21T02:13:37;92974.66;;;11.86;73.89
52249;BME280;38541;48.130;8.378;2022-08-21T02:16:04;92970.97;;;11.87;73.44
52249;BME280;38541;48.130;8.378;2022-08-21T02:18:30;92963.06;;;11.92;73.76
52249;BME280;38541;48.130;8.378;2022-08-21T02:20:57;92967.28;;;11.93;73.21
52249;BME280;38541;48.130;8.378;2022-08-21T02:23:24;92963.59;;;11.89;73.18
52249;BME280;38541;48.130;8.378;2022-08-21T02:26:03;92963.59;;;11.84;73.42
52249;BME280;38541;48.130;8.378;2022-08-21T02:28:31;92963.59;;;11.79;73.58
52249;BME280;38541;48.130;8.378;2022-08-21T02:30:58;92953.59;;;11.76;73.89
52249;BME280;38541;48.130;8.378;2022-08-21T02:33:25;92949.13;;;11.76;73.72
52249;BME280;38541;48.130;8.378;2022-08-21T02:35:53;92954.41;;;11.76;73.97
52249;BME280;38541;48.130;8.378;2022-08-21T02:38:24;92948.31;;;11.76;74.38
52249;BME280;38541;48.130;8.378;2022-08-21T02:40:51;92941.75;;;11.73;74.68
52249;BME280;38541;48.130;8.378;2022-08-21T02:43:20;92941.50;;;11.69;74.92
52249;BME280;38541;48.130;8.378;2022-08-21T02:45:48;92943.59;;;11.67;75.04
52249;BME280;38541;48.130;8.378;2022-08-21T02:48:19;92942.78;;;11.72;74.40
52249;BME280;38541;48.130;8.378;2022-08-21T02:50:50;92947.00;;;11.73;73.98
52249;BME280;38541;48.130;8.378;2022-08-21T02:53:17;92948.88;;;11.73;74.22
52249;BME280;38541;48.130;8.378;2022-08-21T02:55:45;92944.66;;;11.66;74.04
52249;BME280;38541;48.130;8.378;2022-08-21T02:58:15;92945.16;;;11.63;73.53
52249;BME280;38541;48.130;8.378;2022-08-21T03:00:42;92949.91;;;11.61;73.54
52249;BME280;38541;48.130;8.378;2022-08-21T03:03:10;92947.81;;;11.58;73.73
52249;BME280;38541;48.130;8.378;2022-08-21T03:05:38;92952.53;;;11.61;74.09
52249;BME280;38541;48.130;8.378;2022-08-21T03:08:07;92953.59;;;11.60;74.06
52249;BME280;38541;48.130;8.378;2022-08-21T03:10:38;92953.06;;;11.58;74.19
52249;BME280;38541;48.130;8.378;2022-08-21T03:13:06;92945.94;;;11.53;73.99
52249;BME280;38541;48.130;8.378;2022-08-21T03:15:33;92951.22;;;11.48;74.02
52249;BME280;38541;48.130;8.378;2022-08-21T03:18:01;92940.44;;;11.50;74.37
52249;BME280;38541;48.130;8.378;2022-08-21T03:20:29;92944.66;;;11.51;74.72
52249;BME280;38541;48.130;8.378;2022-08-21T03:22:59;92941.50;;;11.54;74.92
52249;BME280;38541;48.130;8.378;2022-08-21T03:25:27;92934.91;;;11.51;75.13
52249;BME280;38541;48.130;8.378;2022-08-21T03:28:08;92936.47;;;11.47;74.73
52249;BME280;38541;48.130;8.378;2022-08-21T03:30:43;92933.06;;;11.47;74.42
52249;BME280;38541;48.130;8.378;2022-08-21T03:33:11;92931.75;;;11.44;74.66
52249;BME280;38541;48.130;8.378;2022-08-21T03:35:45;92932.00;;;11.42;74.70
52249;BME280;38541;48.130;8.378;2022-08-21T03:38:13;92932.53;;;11.39;74.95
52249;BME280;38541;48.130;8.378;2022-08-21T03:40:41;92933.84;;;11.37;74.70
52249;BME280;38541;48.130;8.378;2022-08-21T03:43:08;92936.22;;;11.38;74.45
52249;BME280;38541;48.130;8.378;2022-08-21T03:45:36;92939.09;;;11.37;74.45
52249;BME280;38541;48.130;8.378;2022-08-21T03:48:05;92935.44;;;11.38;74.86
52249;BME280;38541;48.130;8.378;2022-08-21T03:50:36;92938.06;;;11.38;75.53
52249;BME280;38541;48.130;8.378;2022-08-21T03:53:08;92932.53;;;11.39;75.20
52249;BME280;38541;48.130;8.378;2022-08-21T03:55:44;92930.19;;;11.38;74.78
52249;BME280;38541;48.130;8.378;2022-08-21T03:58:12;92928.03;;;11.35;74.68
52249;BME280;38541;48.130;8.378;2022-08-21T04:00:44;92930.94;;;11.33;74.71
52249;BME280;38541;48.130;8.378;2022-08-21T04:03:11;92929.63;;;11.31;74.52
52249;BME280;38541;48.130;8.378;2022-08-21T04:05:38;92934.09;;;11.25;74.69
52249;BME280;38541;48.130;8.378;2022-08-21T04:08:05;92930.94;;;11.23;74.76
52249;BME280;38541;48.130;8.378;2022-08-21T04:10:35;92937.75;;;11.24;75.23
52249;BME280;38541;48.130;8.378;2022-08-21T04:13:06;92938.84;;;11.28;75.48
52249;BME280;38541;48.130;8.378;2022-08-21T04:15:33;92942.00;;;11.30;75.40
52249;BME280;38541;48.130;8.378;2022-08-21T04:18:00;92944.88;;;11.28;75.11
52249;BME280;38541;48.130;8.378;2022-08-21T04:20:28;92948.81;;;11.26;74.55
52249;BME280;38541;48.130;8.378;2022-08-21T04:22:54;92943.03;;;11.24;74.35
52249;BME280;38541;48.130;8.378;2022-08-21T04:25:22;92940.41;;;11.19;74.03
52249;BME280;38541;48.130;8.378;2022-08-21T04:27:49;92940.13;;;11.15;74.21
52249;BME280;38541;48.130;8.378;2022-08-21T04:30:17;92943.78;;;11.14;74.66
52249;BME280;38541;48.130;8.378;2022-08-21T04:32:46;92943.03;;;11.13;74.13
52249;BME280;38541;48.130;8.378;2022-08-21T04:35:17;92945.91;;;11.12;73.89
52249;BME280;38541;48.130;8.378;2022-08-21T04:37:45;92955.66;;;11.11;74.36
52249;BME280;38541;48.130;8.378;2022-08-21T04:40:13;92951.69;;;11.09;74.66
52249;BME280;38541;48.130;8.378;2022-08-21T04:42:46;92954.06;;;11.10;74.93
52249;BME280;38541;48.130;8.378;2022-08-21T04:45:22;92951.16;;;11.07;74.53
52249;BME280;38541;48.130;8.378;2022-08-21T04:47:50;92952.19;;;11.06;74.62
52249;BME280;38541;48.130;8.378;2022-08-21T04:50:20;92950.34;;;11.01;75.03
52249;BME280;38541;48.130;8.378;2022-08-21T04:53:03;92952.72;;;11.03;74.85
52249;BME280;38541;48.130;8.378;2022-08-21T04:55:30;92951.16;;;11.02;74.93
52249;BME280;38541;48.130;8.378;2022-08-21T04:57:57;92951.41;;;11.05;74.57
52249;BME280;38541;48.130;8.378;2022-08-21T05:00:24;92954.56;;;11.07;75.14
52249;BME280;38541;48.130;8.378;2022-08-21T05:02:53;92955.06;;;11.04;76.39
52249;BME280;38541;48.130;8.378;2022-08-21T05:05:23;92956.16;;;11.13;76.96
52249;BME280;38541;48.130;8.378;2022-08-21T05:07:49;92960.66;;;11.18;76.62
52249;BME280;38541;48.130;8.378;2022-08-21T05:10:16;92960.38;;;11.20;76.75
52249;BME280;38541;48.130;8.378;2022-08-21T05:12:44;92961.97;;;11.21;76.29
52249;BME280;38541;48.130;8.378;2022-08-21T05:15:12;92955.41;;;11.18;76.13
52249;BME280;38541;48.130;8.378;2022-08-21T05:17:40;92958.03;;;11.18;76.15
52249;BME280;38541;48.130;8.378;2022-08-21T05:20:09;92961.44;;;11.19;75.92
52249;BME280;38541;48.130;8.378;2022-08-21T05:22:36;92959.84;;;11.18;76.43
52249;BME280;38541;48.130;8.378;2022-08-21T05:25:04;92955.94;;;11.20;76.68
52249;BME280;38541;48.130;8.378;2022-08-21T05:27:37;92957.25;;;11.28;76.09
52249;BME280;38541;48.130;8.378;2022-08-21T05:30:08;92964.63;;;11.31;76.62
52249;BME280;38541;48.130;8.378;2022-08-21T05:32:36;92964.88;;;11.35;76.84
52249;BME280;38541;48.130;8.378;2022-08-21T05:35:07;92966.97;;;11.33;77.02
52249;BME280;38541;48.130;8.378;2022-08-21T05:37:34;92972.25;;;11.38;76.85
52249;BME280;38541;48.130;8.378;2022-08-21T05:40:02;92973.03;;;11.44;76.58
52249;BME280;38541;48.130;8.378;2022-08-21T05:42:50;92965.94;;;11.49;76.68
52249;BME280;38541;48.130;8.378;2022-08-21T05:45:28;92973.06;;;11.54;76.62
52249;BME280;38541;48.130;8.378;2022-08-21T05:48:21;92961.22;;;11.56;76.72
52249;BME280;38541;48.130;8.378;2022-08-21T05:50:49;92960.19;;;11.63;76.51
52249;BME280;38541;48.130;8.378;2022-08-21T05:53:18;92964.91;;;11.66;76.98
52249;BME280;38541;48.130;8.378;2022-08-21T05:55:45;92959.91;;;11.75;77.41
52249;BME280;38541;48.130;8.378;2022-08-21T05:58:14;92962.56;;;11.85;77.63
52249;BME280;38541;48.130;8.378;2022-08-21T06:00:42;92964.66;;;11.93;77.82
52249;BME280;38541;48.130;8.378;2022-08-21T06:03:29;92966.75;;;12.02;78.16
52249;BME280;38541;48.130;8.378;2022-08-21T06:05:56;92966.75;;;12.12;78.15
52249;BME280;38541;48.130;8.378;2022-08-21T06:08:23;92972.56;;;12.24;78.39
52249;BME280;38541;48.130;8.378;2022-08-21T06:10:51;92964.88;;;12.38;78.75
52249;BME280;38541;48.130;8.378;2022-08-21T06:13:19;92965.63;;;12.49;78.68
52249;BME280;38541;48.130;8.378;2022-08-21T06:15:46;92971.94;;;12.59;78.54
52249;BME280;38541;48.130;8.378;2022-08-21T06:18:13;92961.88;;;12.71;79.00
52249;BME280;38541;48.130;8.378;2022-08-21T06:20:40;92965.25;;;12.82;79.01
52249;BME280;38541;48.130;8.378;2022-08-21T06:23:07;92957.88;;;12.84;79.50
52249;BME280;38541;48.130;8.378;2022-08-21T06:25:34;92956.53;;;12.92;79.36
52249;BME280;38541;48.130;8.378;2022-08-21T06:28:03;92955.41;;;13.03;79.19
52249;BME280;38541;48.130;8.378;2022-08-21T06:30:30;92956.69;;;13.11;78.45
52249;BME280;38541;48.130;8.378;2022-08-21T06:32:57;92946.88;;;13.22;78.18
52249;BME280;38541;48.130;8.378;2022-08-21T06:35:24;92947.09;;;13.31;78.60
52249;BME280;38541;48.130;8.378;2022-08-21T06:37:51;92949.94;;;13.39;78.53
52249;BME280;38541;48.130;8.378;2022-08-21T06:40:18;92952.56;;;13.45;78.99
52249;BME280;38541;48.130;8.378;2022-08-21T06:42:44;92958.59;;;13.50;79.53
52249;BME280;38541;48.130;8.378;2022-08-21T06:45:13;92953.53;;;13.59;79.24
52249;BME280;38541;48.130;8.378;2022-08-21T06:47:40;92953.22;;;13.66;79.40
52249;BME280;38541;48.130;8.378;2022-08-21T06:50:07;92956.59;;;13.72;78.89
52249;BME280;38541;48.130;8.378;2022-08-21T06:52:35;92956.03;;;13.80;78.93
52249;BME280;38541;48.130;8.378;2022-08-21T06:55:05;92953.09;;;13.81;78.82
52249;BME280;38541;48.130;8.378;2022-08-21T06:57:33;92963.34;;;13.88;78.23
52249;BME280;38541;48.130;8.378;2022-08-21T06:59:59;92957.00;;;13.89;78.29
52249;BME280;38541;48.130;8.378;2022-08-21T07:02:26;92958.56;;;13.90;78.54
52249;BME280;38541;48.130;8.378;2022-08-21T07:04:53;92953.75;;;13.97;78.39
52249;BME280;38541;48.130;8.378;2022-08-21T07:07:19;92951.06;;;14.03;78.98
52249;BME280;38541;48.130;8.378;2022-08-21T07:09:46;92948.13;;;14.09;78.95
52249;BME280;38541;48.130;8.378;2022-08-21T07:12:12;92948.84;;;14.15;78.77
52249;BME280;38541;48.130;8.378;2022-08-21T07:14:39;92950.88;;;14.23;78.73
52249;BME280;38541;48.130;8.378;2022-08-21T07:17:05;92948.41;;;14.32;78.83
52249;BME280;38541;48.130;8.378;2022-08-21T07:19:32;92947.53;;;14.42;78.81
52249;BME280;38541;48.130;8.378;2022-08-21T07:22:01;92946.88;;;14.55;78.34
52249;BME280;38541;48.130;8.378;2022-08-21T07:24:30;92946.19;;;14.69;77.93
52249;BME280;38541;48.130;8.378;2022-08-21T07:26:57;92951.66;;;14.78;77.70
52249;BME280;38541;48.130;8.378;2022-08-21T07:29:23;92945.56;;;15.02;77.31
52249;BME280;38541;48.130;8.378;2022-08-21T07:31:50;92947.28;;;15.11;77.64
52249;BME280;38541;48.130;8.378;2022-08-21T07:34:16;92941.84;;;15.22;76.83
52249;BME280;38541;48.130;8.378;2022-08-21T07:36:43;92944.06;;;15.34;75.65
52249;BME280;38541;48.130;8.378;2022-08-21T07:39:10;92960.63;;;15.45;75.51
52249;BME280;38541;48.130;8.378;2022-08-21T07:41:37;92954.88;;;15.57;74.81
52249;BME280;38541;48.130;8.378;2022-08-21T07:44:04;92954.72;;;15.67;70.11
52249;BME280;38541;48.130;8.378;2022-08-21T07:46:32;92953.69;;;15.82;68.29
52249;BME280;38541;48.130;8.378;2022-08-21T07:48:58;92951.31;;;16.00;67.89
52249;BME280;38541;48.130;8.378;2022-08-21T07:51:26;92951.06;;;16.15;67.96
52249;BME280;38541;48.130;8.378;2022-08-21T07:53:56;92951.88;;;16.30;66.84
52249;BME280;38541;48.130;8.378;2022-08-21T07:56:24;92955.63;;;16.43;65.54
52249;BME280;38541;48.130;8.378;2022-08-21T07:58:50;92946.13;;;16.55;64.03
52249;BME280;38541;48.130;8.378;2022-08-21T08:01:18;92946.41;;;16.68;62.56
52249;BME280;38541;48.130;8.378;2022-08-21T08:03:45;92947.09;;;16.88;62.05
52249;BME280;38541;48.130;8.378;2022-08-21T08:06:12;92946.84;;;17.03;60.98
52249;BME280;38541;48.130;8.378;2022-08-21T08:08:41;92944.47;;;17.16;60.89
52249;BME280;38541;48.130;8.378;2022-08-21T08:11:08;92947.00;;;17.21;59.48
52249;BME280;38541;48.130;8.378;2022-08-21T08:13:41;92948.84;;;17.34;60.52
52249;BME280;38541;48.130;8.378;2022-08-21T08:16:08;92946.75;;;17.45;58.59
52249;BME280;38541;48.130;8.378;2022-08-21T08:18:34;92945.75;;;17.55;59.17
52249;BME280;38541;48.130;8.378;2022-08-21T08:21:01;92943.25;;;17.59;58.38
52249;BME280;38541;48.130;8.378;2022-08-21T08:23:28;92939.81;;;17.58;58.50
52249;BME280;38541;48.130;8.378;2022-08-21T08:25:56;92942.16;;;17.60;58.63
52249;BME280;38541;48.130;8.378;2022-08-21T08:28:23;92940.78;;;17.62;58.94
52249;BME280;38541;48.130;8.378;2022-08-21T08:30:50;92935.28;;;17.59;56.07
52249;BME280;38541;48.130;8.378;2022-08-21T08:33:17;92934.31;;;17.54;57.68
52249;BME280;38541;48.130;8.378;2022-08-21T08:35:46;92941.41;;;17.59;58.16
52249;BME280;38541;48.130;8.378;2022-08-21T08:38:15;92935.19;;;17.64;58.34
52249;BME280;38541;48.130;8.378;2022-08-21T08:41:12;92931.59;;;17.68;57.62
52249;BME280;38541;48.130;8.378;2022-08-21T08:43:42;92930.41;;;17.75;57.92
52249;BME280;38541;48.130;8.378;2022-08-21T08:46:15;92926.97;;;17.74;57.04
52249;BME280;38541;48.130;8.378;2022-08-21T08:54:26;92920.63;;;17.84;56.61
52249;BME280;38541;48.130;8.378;2022-08-21T08:56:59;92914.06;;;17.90;56.98
52249;BME280;38541;48.130;8.378;2022-08-21T08:59:38;92910.38;;;17.91;54.99
52249;BME280;38541;48.130;8.378;2022-08-21T09:02:08;92907.19;;;17.89;54.44
52249;BME280;38541;48.130;8.378;2022-08-21T09:04:36;92908.19;;;17.93;55.13
52249;BME280;38541;48.130;8.378;2022-08-21T09:15:15;92903.06;;;18.29;55.14
52249;BME280;38541;48.130;8.378;2022-08-21T09:18:02;92910.78;;;18.39;54.58
52249;BME280;38541;48.130;8.378;2022-08-21T09:20:43;92904.69;;;18.47;55.06
52249;BME280;38541;48.130;8.378;2022-08-21T09:23:49;92906.81;;;18.59;55.15
52249;BME280;38541;48.130;8.378;2022-08-21T09:26:23;92903.19;;;18.64;53.10
52249;BME280;38541;48.130;8.378;2022-08-21T09:28:56;92903.38;;;18.67;52.27
52249;BME280;38541;48.130;8.378;2022-08-21T09:31:34;92900.41;;;18.69;52.69
52249;BME280;38541;48.130;8.378;2022-08-21T09:34:06;92897.28;;;18.76;52.80
52249;BME280;38541;48.130;8.378;2022-08-21T09:36:45;92896.34;;;18.80;51.70
52249;BME280;38541;48.130;8.378;2022-08-21T09:39:30;92895.91;;;18.87;52.39
52249;BME280;38541;48.130;8.378;2022-08-21T09:42:08;92899.22;;;18.93;51.36
52249;BME280;38541;48.130;8.378;2022-08-21T09:44:40;92905.31;;;18.93;51.85
52249;BME280;38541;48.130;8.378;2022-08-21T09:47:11;92901.88;;;18.93;51.77
52249;BME280;38541;48.130;8.378;2022-08-21T09:49:41;92894.19;;;18.91;51.67
52249;BME280;38541;48.130;8.378;2022-08-21T09:52:21;92892.31;;;18.92;51.59
52249;BME280;38541;48.130;8.378;2022-08-21T09:54:52;92892.66;;;18.99;50.91
52249;BME280;38541;48.130;8.378;2022-08-21T09:57:24;92895.03;;;19.09;51.22
52249;BME280;38541;48.130;8.378;2022-08-21T10:00:27;92895.53;;;19.29;50.25
52249;BME280;38541;48.130;8.378;2022-08-21T10:03:11;92892.06;;;19.37;50.10
52249;BME280;38541;48.130;8.378;2022-08-21T10:05:39;92897.56;;;19.41;49.93
52249;BME280;38541;48.130;8.378;2022-08-21T10:08:16;92883.91;;;19.51;50.24
52249;BME280;38541;48.130;8.378;2022-08-21T10:10:44;92886.28;;;19.62;50.09
52249;BME280;38541;48.130;8.378;2022-08-21T10:13:19;92887.66;;;19.77;48.98
52249;BME280;38541;48.130;8.378;2022-08-21T10:16:05;92876.38;;;19.80;46.95
52249;BME280;38541;48.130;8.378;2022-08-21T10:18:41;92876.34;;;19.89;46.77
52249;BME280;38541;48.130;8.378;2022-08-21T10:24:32;92866.28;;;20.12;48.09
52249;BME280;38541;48.130;8.378;2022-08-21T10:29:50;92863.31;;;20.52;46.94
52249;BME280;38541;48.130;8.378;2022-08-21T10:35:18;92864.63;;;20.76;45.23
52249;BME280;38541;48.130;8.378;2022-08-21T10:41:24;92858.47;;;20.85;47.59
52249;BME280;38541;48.130;8.378;2022-08-21T10:47:05;92855.09;;;21.39;43.47
52249;BME280;38541;48.130;8.378;2022-08-21T10:49:53;92851.16;;;21.58;43.12
52249;BME280;38541;48.130;8.378;2022-08-21T10:52:45;92850.41;;;21.57;43.34
52249;BME280;38541;48.130;8.378;2022-08-21T10:55:21;92852.78;;;21.37;44.33
52249;BME280;38541;48.130;8.378;2022-08-21T10:57:58;92850.06;;;21.80;42.58
52249;BME280;38541;48.130;8.378;2022-08-21T11:00:48;92848.72;;;21.86;41.10
52249;BME280;38541;48.130;8.378;2022-08-21T11:03:34;92852.88;;;21.96;41.00
52249;BME280;38541;48.130;8.378;2022-08-21T11:06:09;92846.56;;;22.26;41.29
52249;BME280;38541;48.130;8.378;2022-08-21T11:08:43;92847.31;;;22.47;42.30
52249;BME280;38541;48.130;8.378;2022-08-21T11:11:19;92845.63;;;22.68;41.20
52249;BME280;38541;48.130;8.378;2022-08-21T11:13:53;92845.81;;;23.00;40.19
52249;BME280;38541;48.130;8.378;2022-08-21T11:16:38;92845.94;;;23.03;39.43
52249;BME280;38541;48.130;8.378;2022-08-21T11:19:08;92845.47;;;23.14;39.99
52249;BME280;38541;48.130;8.378;2022-08-21T11:24:41;92836.25;;;23.40;39.70
52249;BME280;38541;48.130;8.378;2022-08-21T11:29:52;92834.69;;;23.39;38.89
52249;BME280;38541;48.130;8.378;2022-08-21T11:46:28;92823.22;;;23.83;37.80
52249;BME280;38541;48.130;8.378;2022-08-21T11:51:46;92823.75;;;23.88;37.84
52249;BME280;38541;48.130;8.378;2022-08-21T11:56:55;92813.59;;;24.58;37.97
52249;BME280;38541;48.130;8.378;2022-08-21T11:59:36;92823.09;;;24.72;36.96
52249;BME280;38541;48.130;8.378;2022-08-21T12:02:14;92820.59;;;24.95;38.13
52249;BME280;38541;48.130;8.378;2022-08-21T12:04:46;92818.63;;;25.12;36.92
52249;BME280;38541;48.130;8.378;2022-08-21T12:07:30;92810.84;;;25.26;35.68
52249;BME280;38541;48.130;8.378;2022-08-21T12:10:00;92811.84;;;25.38;35.76
52249;BME280;38541;48.130;8.378;2022-08-21T12:12:36;92813.53;;;25.46;33.74
52249;BME280;38541;48.130;8.378;2022-08-21T12:17:58;92793.31;;;25.32;34.40
52249;BME280;38541;48.130;8.378;2022-08-21T12:25:48;92796.88;;;25.56;34.80
52249;BME280;38541;48.130;8.378;2022-08-21T12:28:26;92790.06;;;25.62;33.97
52249;BME280;38541;48.130;8.378;2022-08-21T12:30:54;92796.00;;;25.72;33.79
52249;BME280;38541;48.130;8.378;2022-08-21T12:33:32;92795.13;;;25.68;32.78
52249;BME280;38541;48.130;8.378;2022-08-21T12:36:09;92788.16;;;25.86;33.16
52249;BME280;38541;48.130;8.378;2022-08-21T12:38:52;92802.56;;;26.17;33.08
52249;BME280;38541;48.130;8.378;2022-08-21T12:41:26;92790.94;;;25.90;32.07
52249;BME280;38541;48.130;8.378;2022-08-21T12:44:00;92802.50;;;25.31;34.31
52249;BME280;38541;48.130;8.378;2022-08-21T12:46:37;92801.50;;;25.20;34.83
52249;BME280;38541;48.130;8.378;2022-08-21T12:49:13;92807.53;;;25.72;34.21
52249;BME280;38541;48.130;8.378;2022-08-21T12:51:54;92805.00;;;25.80;33.01
52249;BME280;38541;48.130;8.378;2022-08-21T12:54:25;92801.50;;;25.20;32.94
52249;BME280;38541;48.130;8.378;2022-08-21T12:57:01;92797.81;;;25.08;35.15
52249;BME280;38541;48.130;8.378;2022-08-21T12:59:28;92799.66;;;25.44;34.32
52249;BME280;38541;48.130;8.378;2022-08-21T13:01:56;92796.13;;;25.20;33.14
52249;BME280;38541;48.130;8.378;2022-08-21T13:04:44;92792.19;;;25.53;32.92
52249;BME280;38541;48.130;8.378;2022-08-21T13:07:16;92797.69;;;25.21;33.83
52249;BME280;38541;48.130;8.378;2022-08-21T13:09:58;92794.50;;;25.74;34.49
52249;BME280;38541;48.130;8.378;2022-08-21T13:12:27;92793.34;;;26.18;31.57
52249;BME280;38541;48.130;8.378;2022-08-21T13:15:01;92795.25;;;26.41;32.15
52249;BME280;38541;48.130;8.378;2022-08-21T13:17:36;92790.59;;;26.38;32.14
52249;BME280;38541;48.130;8.378;2022-08-21T13:20:19;92775.78;;;26.78;31.00
52249;BME280;38541;48.130;8.378;2022-08-21T13:22:46;92784.50;;;26.91;30.76
52249;BME280;38541;48.130;8.378;2022-08-21T13:25:16;92787.72;;;27.35;30.55
52249;BME280;38541;48.130;8.378;2022-08-21T13:27:57;92787.72;;;27.66;28.92
52249;BME280;38541;48.130;8.378;2022-08-21T13:30:24;92779.94;;;27.60;29.33
52249;BME280;38541;48.130;8.378;2022-08-21T13:32:55;92781.63;;;27.76;28.35
52249;BME280;38541;48.130;8.378;2022-08-21T13:37:53;92792.63;;;28.36;28.63
52249;BME280;38541;48.130;8.378;2022-08-21T13:40:26;92788.81;;;27.99;27.37
52249;BME280;38541;48.130;8.378;2022-08-21T13:42:54;92788.88;;;27.34;29.25
52249;BME280;38541;48.130;8.378;2022-08-21T13:45:29;92784.09;;;26.66;30.48
52249;BME280;38541;48.130;8.378;2022-08-21T13:48:00;92785.56;;;26.13;30.19
52249;BME280;38541;48.130;8.378;2022-08-21T13:50:34;92784.28;;;25.84;30.65
52249;BME280;38541;48.130;8.378;2022-08-21T13:53:05;92781.97;;;25.62;32.89
52249;BME280;38541;48.130;8.378;2022-08-21T13:55:40;92778.44;;;25.58;30.55
52249;BME280;38541;48.130;8.378;2022-08-21T13:58:10;92772.72;;;25.83;31.04
52249;BME280;38541;48.130;8.378;2022-08-21T14:00:50;92774.22;;;26.77;31.54
52249;BME280;38541;48.130;8.378;2022-08-21T14:03:37;92774.38;;;27.84;29.99
52249;BME280;38541;48.130;8.378;2022-08-21T14:06:19;92771.81;;;27.98;27.91
52249;BME280;38541;48.130;8.378;2022-08-21T14:08:51;92771.50;;;28.48;28.43
52249;BME280;38541;48.130;8.378;2022-08-21T14:11:19;92764.88;;;28.42;26.82
52249;BME280;38541;48.130;8.378;2022-08-21T14:14:00;92765.59;;;28.84;28.37
52249;BME280;38541;48.130;8.378;2022-08-21T14:16:43;92761.94;;;29.32;28.40
52249;BME280;38541;48.130;8.378;2022-08-21T14:19:19;92767.09;;;29.59;26.80
52249;BME280;38541;48.130;8.378;2022-08-21T14:21:46;92761.22;;;29.43;26.25
52249;BME280;38541;48.130;8.378;2022-08-21T14:27:06;92752.56;;;28.45;26.98
52249;BME280;38541;48.130;8.378;2022-08-21T14:29:40;92756.22;;;27.81;26.68
52249;BME280;38541;48.130;8.378;2022-08-21T14:34:50;92762.19;;;27.59;27.95